KVAD/VAD METAR and TAF weather

Enter ICAO airport designator
Station Type Date Time Source
KVAD METAR 2019/04/19 10:16 UTC NOAA

KVAD 191016Z AUTO 17017G21KT 10SM BKN012 22/21 A2968 RMK AO2 BKN V SCT SLP051 $


Station Type Date Time Source
KVAD Decoded METAR 2019/04/19 10:16 UTC NOAA

Moody Air Force Base, GA, United States (KVAD) 30-58N 083-12W 71M
Apr 19, 2019 - 06:16 AM EDT / 2019.04.19 1016 UTC
Wind: from the S (170 degrees) at 20 MPH (17 KT) gusting to 24 MPH (21 KT):0
Visibility: 10 mile(s):0
Sky conditions: mostly cloudy
Temperature: 71 F (22 C)
Dew Point: 69 F (21 C)
Relative Humidity: 94%
Pressure (altimeter): 29.68 in. Hg (1005 hPa)
ob: KVAD 191016Z AUTO 17017G21KT 10SM BKN012 22/21 A2968 RMK AO2 BKN V SCT SLP051
cycle: 10

Station Type Date Time Source
KVAD TAF 2019/04/19 09:30 UTC NOAA

TAF
AMD KVAD 190925Z 1909/2014 19012G18KT 9999 SCT010 OVC030 540204 QNH2969INS
BECMG 1910/1911 18015G25KT 8000 -RA OVC020 540204 QNH2962INS
BECMG 1913/1914 18025G35KT 4800 -TSRA BKN010CB BKN025 540204 QNH2959INS
TEMPO 1913/1916 18025G40KT 2400 TSRAGR BKN007CB
BECMG 1917/1918 21015G25KT 8000 -SHRA BKN020 QNH2964INS
BECMG 1922/1923 27012KT 9999 NSW SCT020 BKN030 QNH2968INS
BECMG 2002/2003 25009KT 9999 FEW030 QNH2975INS TX23/1915Z TN11/2008Z

Example: see airport list